Time;durP1;ratioP1;P1;durP2;ratioP2;P2;SDS_P1;SDS_P2;PMS_P1;PMS_P2;Temp;Humidity;BMP_temperature;BMP_pressure;BME280_temperature;BME280_humidity;BME280_pressure;Samples;Min_cycle;Max_cycle;Signal;HPM_P1;HPM_P2
2022/02/04 00:25:13;0.00;0.00;0.62;0.00;0.00;0.62;5.17;4.67;;;21.90;27.90;;;;;;2241027;62;20381;-61
2022/02/04 00:28:05;0.00;0.00;0.62;0.00;0.00;0.62;4.53;4.13;;;21.90;27.90;;;;;;2240559;62;20414;-61
2022/02/04 00:31:03;0.00;0.00;0.62;0.00;0.00;0.62;4.40;4.00;;;21.90;27.90;;;;;;2241279;62;20370;-59
2022/02/04 00:33:51;0.00;0.00;0.62;0.00;0.00;0.62;4.93;4.53;;;21.80;27.90;;;;;;2240701;62;20362;-60
2022/02/04 00:36:43;0.00;0.00;0.62;0.00;0.00;0.62;6.90;5.93;;;21.80;27.90;;;;;;2241118;62;20359;-59
2022/02/04 00:39:36;0.00;0.00;0.62;0.00;0.00;0.62;6.93;5.03;;;21.70;27.80;;;;;;2241512;62;20413;-60
2022/02/04 00:42:20;0.00;0.00;0.62;0.00;0.00;0.62;5.30;4.80;;;21.70;27.80;;;;;;2241026;62;20374;-60
2022/02/04 00:46:13;0.00;0.00;0.62;0.00;0.00;0.62;5.40;4.80;;;21.70;27.80;;;;;;2241120;62;20371;-61
2022/02/04 00:48:42;0.00;0.00;0.62;0.00;0.00;0.62;4.93;4.43;;;21.70;27.80;;;;;;2239673;62;20378;-58
2022/02/04 00:54:25;0.00;0.00;0.62;0.00;0.00;0.62;6.27;5.67;;;21.60;27.70;;;;;;2241685;62;20471;-60
2022/02/04 00:57:39;0.00;0.00;0.62;0.00;0.00;0.62;5.73;5.20;;;21.60;27.70;;;;;;2241002;62;20361;-60
2022/02/04 01:27:59;0.00;0.00;0.62;0.00;0.00;0.62;7.80;7.10;;;21.20;27.40;;;;;;2240889;62;20779;-60
2022/02/04 01:30:45;0.00;0.00;0.62;0.00;0.00;0.62;6.80;6.10;;;21.10;27.40;;;;;;2241533;61;20378;-61
2022/02/04 01:33:30;0.00;0.00;0.62;0.00;0.00;0.62;7.00;6.40;;;21.10;27.40;;;;;;2240373;62;20758;-60
2022/02/04 01:36:16;0.00;0.00;0.62;0.00;0.00;0.62;7.53;6.93;;;21.10;27.40;;;;;;2241105;62;20390;-59
2022/02/04 01:39:01;0.00;0.00;0.62;0.00;0.00;0.62;8.30;7.50;;;21.00;27.30;;;;;;2240795;61;20402;-58
2022/02/04 01:41:45;0.00;0.00;0.62;0.00;0.00;0.62;8.00;7.30;;;21.00;27.30;;;;;;2243931;61;20386;-59
2022/02/04 01:44:30;0.00;0.00;0.62;0.00;0.00;0.62;8.80;6.97;;;21.00;27.30;;;;;;2241911;62;20370;-61
2022/02/04 01:47:16;0.00;0.00;0.62;0.00;0.00;0.62;6.10;5.60;;;21.00;27.30;;;;;;2241613;62;20406;-60
2022/02/04 01:50:00;0.00;0.00;0.62;0.00;0.00;0.62;6.03;5.53;;;20.90;27.20;;;;;;2256748;58;20466;-61
2022/02/04 01:52:45;0.00;0.00;0.62;0.00;0.00;0.62;7.30;6.00;;;20.90;27.20;;;;;;2238221;62;20439;-59
2022/02/04 01:55:30;0.00;0.00;0.62;0.00;0.00;0.62;6.83;5.83;;;20.90;27.20;;;;;;2237402;62;20676;-60
2022/02/04 01:58:15;0.00;0.00;0.62;0.00;0.00;0.62;5.43;4.93;;;20.90;27.20;;;;;;2237740;62;20358;-60
2022/02/04 02:01:00;0.00;0.00;0.62;0.00;0.00;0.62;6.03;5.53;;;20.90;27.30;;;;;;2237848;62;20399;-60
2022/02/04 02:03:46;0.00;0.00;0.62;0.00;0.00;0.62;6.97;5.83;;;20.80;27.20;;;;;;2237651;62;20371;-58
2022/02/04 02:06:45;0.00;0.00;0.62;0.00;0.00;0.62;6.23;5.73;;;20.80;27.30;;;;;;2237678;62;20376;-59
2022/02/04 02:09:40;0.00;0.00;0.62;0.00;0.00;0.62;6.80;6.07;;;20.80;27.30;;;;;;2237457;62;20460;-58
2022/02/04 02:12:29;0.00;0.00;0.62;0.00;0.00;0.62;5.23;4.73;;;20.80;27.30;;;;;;2237463;62;20440;-60
2022/02/04 02:15:30;0.00;0.00;0.62;0.00;0.00;0.62;6.40;5.90;;;20.80;27.40;;;;;;2238237;62;20355;-60
2022/02/04 02:45:59;0.00;0.00;0.62;0.00;0.00;0.62;6.23;5.63;;;20.80;27.50;;;;;;2237465;62;20379;-58
2022/02/04 02:49:04;0.00;0.00;0.62;0.00;0.00;0.62;6.07;5.47;;;20.70;27.40;;;;;;2239526;62;20406;-58
2022/02/04 02:58:02;0.00;0.00;0.62;0.00;0.00;0.62;5.90;5.40;;;20.70;27.30;;;;;;2241505;62;20362;-61
2022/02/04 03:03:34;0.00;0.00;0.62;0.00;0.00;0.62;5.97;5.37;;;20.60;27.30;;;;;;2241397;62;20436;-60
2022/02/04 03:06:19;0.00;0.00;0.62;0.00;0.00;0.62;9.73;8.73;;;20.60;27.30;;;;;;2241837;62;20632;-60
2022/02/04 03:09:05;0.00;0.00;0.62;0.00;0.00;0.62;8.27;7.47;;;20.60;27.20;;;;;;2240813;62;20350;-60
2022/02/04 03:11:49;0.00;0.00;0.62;0.00;0.00;0.62;6.80;6.20;;;20.60;27.00;;;;;;2241187;62;20475;-61
2022/02/04 03:14:34;0.00;0.00;0.62;0.00;0.00;0.62;6.97;6.37;;;20.60;27.20;;;;;;2241998;62;20363;-59
2022/02/04 03:17:19;0.00;0.00;0.62;0.00;0.00;0.62;7.67;6.07;;;20.60;27.30;;;;;;2240723;62;20369;-59
2022/02/04 03:20:08;0.00;0.00;0.62;0.00;0.00;0.62;6.33;5.50;;;20.50;27.30;;;;;;2241380;62;20465;-59
2022/02/04 03:22:55;0.00;0.00;0.62;0.00;0.00;0.62;6.10;5.50;;;20.50;27.30;;;;;;2241221;62;20363;-59
2022/02/04 03:25:46;0.00;0.00;0.62;0.00;0.00;0.62;5.70;5.10;;;20.50;27.40;;;;;;2241241;62;20382;-60
2022/02/04 03:28:32;0.00;0.00;0.62;0.00;0.00;0.62;6.03;5.30;;;20.50;27.40;;;;;;2241617;62;20446;-59
2022/02/04 03:31:17;0.00;0.00;0.62;0.00;0.00;0.62;6.87;5.20;;;20.50;27.50;;;;;;2240588;62;20422;-59
2022/02/04 03:34:03;0.00;0.00;0.62;0.00;0.00;0.62;4.77;4.37;;;20.50;27.50;;;;;;2241077;62;20398;-60
2022/02/04 03:36:47;0.00;0.00;0.62;0.00;0.00;0.62;6.00;5.00;;;20.50;27.50;;;;;;2241816;62;20439;-58
2022/02/04 03:39:33;0.00;0.00;0.62;0.00;0.00;0.62;6.67;6.00;;;20.50;27.50;;;;;;2240529;62;20382;-60
2022/02/04 03:42:19;0.00;0.00;0.62;0.00;0.00;0.62;5.43;4.93;;;20.50;27.50;;;;;;2241274;62;20399;-59
2022/02/04 03:45:04;0.00;0.00;0.62;0.00;0.00;0.62;5.30;4.80;;;20.50;27.50;;;;;;2241310;62;20374;-60
2022/02/04 03:47:49;0.00;0.00;0.62;0.00;0.00;0.62;5.90;5.40;;;20.50;27.50;;;;;;2240645;62;20375;-60
2022/02/04 03:50:34;0.00;0.00;0.62;0.00;0.00;0.62;6.23;5.50;;;20.50;27.50;;;;;;2468192;54;20386;-59
2022/02/04 03:53:18;0.00;0.00;0.62;0.00;0.00;0.62;6.77;5.63;;;20.50;27.40;;;;;;2236815;62;20599;-60
2022/02/04 03:56:04;0.00;0.00;0.62;0.00;0.00;0.62;6.70;6.00;;;20.40;27.30;;;;;;2237283;62;20645;-60
2022/02/04 03:58:50;0.00;0.00;0.62;0.00;0.00;0.62;7.13;6.50;;;20.40;27.30;;;;;;2237095;62;20403;-60
2022/02/04 04:01:34;0.00;0.00;0.62;0.00;0.00;0.62;6.43;5.83;;;20.40;27.30;;;;;;2236673;62;20884;-59
2022/02/04 04:04:19;0.00;0.00;0.62;0.00;0.00;0.62;6.80;6.20;;;20.40;27.30;;;;;;2237370;62;20420;-59
2022/02/04 04:07:03;0.00;0.00;0.62;0.00;0.00;0.62;6.70;6.10;;;20.40;27.30;;;;;;2237094;62;20416;-60
2022/02/04 04:09:58;0.00;0.00;0.62;0.00;0.00;0.62;5.67;5.17;;;20.40;27.30;;;;;;2237198;62;20383;-60
2022/02/04 04:12:42;0.00;0.00;0.62;0.00;0.00;0.62;6.70;6.00;;;20.40;27.40;;;;;;2237396;62;20359;-59
2022/02/04 04:15:28;0.00;0.00;0.62;0.00;0.00;0.62;6.10;5.50;;;20.40;27.40;;;;;;2236797;62;20736;-60
2022/02/04 04:18:13;0.00;0.00;0.62;0.00;0.00;0.62;6.33;5.70;;;20.30;27.40;;;;;;2236982;62;20488;-60
2022/02/04 04:20:58;0.00;0.00;0.62;0.00;0.00;0.62;7.67;6.90;;;20.30;27.40;;;;;;2237749;62;20419;-59
2022/02/04 04:23:43;0.00;0.00;0.62;0.00;0.00;0.62;10.57;6.47;;;20.40;27.50;;;;;;2236849;62;20643;-60
2022/02/04 04:26:27;0.00;0.00;0.62;0.00;0.00;0.62;6.27;5.67;;;20.30;27.40;;;;;;2237541;62;20371;-60
2022/02/04 04:29:12;0.00;0.00;0.62;0.00;0.00;0.62;7.80;6.10;;;20.30;27.40;;;;;;2236902;62;20616;-59
2022/02/04 04:31:58;0.00;0.00;0.62;0.00;0.00;0.62;6.10;5.50;;;20.30;27.40;;;;;;2239957;62;20370;-58
2022/02/04 04:34:42;0.00;0.00;0.62;0.00;0.00;0.62;5.90;5.30;;;20.30;27.40;;;;;;2241362;62;20722;-59
2022/02/04 04:37:27;0.00;0.00;0.62;0.00;0.00;0.62;5.40;4.90;;;20.30;27.40;;;;;;2241059;62;20754;-58
2022/02/04 05:26:16;0.00;0.00;0.62;0.00;0.00;0.62;3.50;3.20;;;20.40;27.90;;;;;;2237922;62;20414;-56
2022/02/04 05:29:14;0.00;0.00;0.62;0.00;0.00;0.62;4.60;3.30;;;20.40;27.90;;;;;;2237615;62;20735;-59
2022/02/04 05:31:58;0.00;0.00;0.62;0.00;0.00;0.62;6.50;2.60;;;20.40;27.90;;;;;;2237647;62;20355;-59
2022/02/04 05:34:45;0.00;0.00;0.62;0.00;0.00;0.62;3.70;2.50;;;20.40;27.90;;;;;;2238301;62;20443;-56
2022/02/04 05:37:33;0.00;0.00;0.62;0.00;0.00;0.62;2.80;2.60;;;20.50;28.00;;;;;;2237356;62;20359;-59
2022/02/04 05:40:21;0.00;0.00;0.62;0.00;0.00;0.62;3.63;2.47;;;20.50;28.00;;;;;;2237709;62;20411;-59
2022/02/04 05:43:14;0.00;0.00;0.62;0.00;0.00;0.62;3.40;2.77;;;20.50;28.00;;;;;;2237543;62;20590;-59
2022/02/04 05:46:03;0.00;0.00;0.62;0.00;0.00;0.62;3.30;2.40;;;20.50;27.90;;;;;;2237646;62;20432;-59
2022/02/04 05:48:52;0.00;0.00;0.62;0.00;0.00;0.62;2.60;2.40;;;20.60;28.00;;;;;;2240029;62;20369;-58
2022/02/04 05:51:47;0.00;0.00;0.62;0.00;0.00;0.62;3.00;2.70;;;20.60;28.00;;;;;;2241480;62;20402;-59
2022/02/04 05:57:25;0.00;0.00;0.62;0.00;0.00;0.62;2.80;2.57;;;20.60;28.00;;;;;;2242426;62;20370;-57
2022/02/04 06:03:41;0.00;0.00;0.62;0.00;0.00;0.62;3.00;2.70;;;20.70;28.10;;;;;;2241846;62;20447;-60
2022/02/04 06:06:50;0.00;0.00;0.62;0.00;0.00;0.62;2.70;2.50;;;20.70;28.10;;;;;;2241315;62;20681;-59
2022/02/04 06:24:01;0.00;0.00;0.62;0.00;0.00;0.62;3.17;2.00;;;20.80;28.10;;;;;;2241459;62;20359;-59
2022/02/04 06:26:51;0.00;0.00;0.62;0.00;0.00;0.62;2.73;2.53;;;20.80;28.10;;;;;;2242043;61;20381;-59
2022/02/04 06:29:36;0.00;0.00;0.62;0.00;0.00;0.62;2.57;2.17;;;20.80;28.00;;;;;;2240712;62;20600;-58
2022/02/04 06:32:22;0.00;0.00;0.62;0.00;0.00;0.62;2.67;2.27;;;20.80;28.00;;;;;;2241692;62;20589;-59
2022/02/04 06:35:09;0.00;0.00;0.62;0.00;0.00;0.62;2.20;2.00;;;20.80;28.00;;;;;;2241291;62;20358;-59
2022/02/04 06:37:54;0.00;0.00;0.62;0.00;0.00;0.62;2.60;2.40;;;20.80;28.00;;;;;;2241558;62;20442;-59
2022/02/04 06:40:38;0.00;0.00;0.62;0.00;0.00;0.62;1.83;1.63;;;20.80;27.90;;;;;;2241691;62;20609;-59
2022/02/04 06:43:24;0.00;0.00;0.62;0.00;0.00;0.62;2.27;1.90;;;20.80;27.90;;;;;;2241052;62;20597;-59
2022/02/04 06:46:09;0.00;0.00;0.62;0.00;0.00;0.62;2.07;1.87;;;20.80;27.90;;;;;;2241643;62;20367;-59
2022/02/04 06:48:54;0.00;0.00;0.62;0.00;0.00;0.62;2.37;2.17;;;20.90;28.00;;;;;;2239415;62;20379;-59
2022/02/04 06:51:38;0.00;0.00;0.62;0.00;0.00;0.62;2.27;2.07;;;20.90;28.00;;;;;;2236943;62;20570;-60
2022/02/04 06:54:23;0.00;0.00;0.62;0.00;0.00;0.62;2.10;1.90;;;20.90;27.90;;;;;;2237703;62;20595;-58
2022/02/04 06:57:07;0.00;0.00;0.62;0.00;0.00;0.62;2.20;2.00;;;20.90;27.90;;;;;;2237381;62;20376;-59
2022/02/04 06:59:54;0.00;0.00;0.62;0.00;0.00;0.62;2.00;1.80;;;20.90;27.90;;;;;;2237392;62;20764;-59
2022/02/04 07:02:38;0.00;0.00;0.62;0.00;0.00;0.62;2.30;2.10;;;20.90;27.90;;;;;;2237656;62;20387;-57
2022/02/04 07:05:24;0.00;0.00;0.62;0.00;0.00;0.62;2.10;1.90;;;20.90;27.90;;;;;;2237547;62;20379;-59
2022/02/04 07:08:21;0.00;0.00;0.62;0.00;0.00;0.62;1.93;1.73;;;20.90;27.80;;;;;;2237624;62;20364;-60
2022/02/04 07:17:08;0.00;0.00;0.62;0.00;0.00;0.62;2.23;1.50;;;21.00;27.90;;;;;;2237507;62;20384;-59
2022/02/04 07:19:48;0.00;0.00;0.62;0.00;0.00;0.62;2.13;1.90;;;21.00;27.80;;;;;;2238007;62;20506;-58
2022/02/04 07:22:38;0.00;0.00;0.62;0.00;0.00;0.62;1.90;1.70;;;21.00;27.80;;;;;;2241424;62;20439;-57
2022/02/04 07:25:23;0.00;0.00;0.62;0.00;0.00;0.62;2.03;1.80;;;21.00;27.80;;;;;;2241834;62;20399;-59
2022/02/04 07:28:07;0.00;0.00;0.62;0.00;0.00;0.62;2.30;1.80;;;21.00;27.80;;;;;;2241057;62;20362;-60
2022/02/04 07:30:53;0.00;0.00;0.62;0.00;0.00;0.62;2.10;1.70;;;21.00;27.80;;;;;;2241207;62;20770;-59
2022/02/04 07:33:43;0.00;0.00;0.62;0.00;0.00;0.62;1.80;1.50;;;21.00;27.80;;;;;;2241864;62;20711;-60
2022/02/04 07:42:35;0.00;0.00;0.62;0.00;0.00;0.62;2.00;1.80;;;21.00;27.70;;;;;;2241143;62;20442;-60
2022/02/04 07:45:20;0.00;0.00;0.62;0.00;0.00;0.62;2.13;1.60;;;21.00;27.70;;;;;;2241240;62;20354;-59
2022/02/04 07:48:05;0.00;0.00;0.62;0.00;0.00;0.62;2.00;1.70;;;21.00;27.70;;;;;;2241536;62;20500;-59
2022/02/04 07:50:51;0.00;0.00;0.62;0.00;0.00;0.62;1.83;1.57;;;21.10;27.80;;;;;;2240836;62;20633;-60
2022/02/04 07:53:36;0.00;0.00;0.62;0.00;0.00;0.62;1.77;1.53;;;21.10;27.80;;;;;;2241280;62;20618;-58
2022/02/04 07:56:23;0.00;0.00;0.62;0.00;0.00;0.62;1.90;1.57;;;21.10;27.80;;;;;;2241389;62;20399;-58
2022/02/04 07:59:09;0.00;0.00;0.62;0.00;0.00;0.62;2.00;1.53;;;21.10;27.70;;;;;;2241019;62;20359;-60
2022/02/04 08:01:54;0.00;0.00;0.62;0.00;0.00;0.62;3.30;1.83;;;21.10;27.70;;;;;;2241490;62;20386;-59
2022/02/04 08:04:40;0.00;0.00;0.62;0.00;0.00;0.62;1.90;1.60;;;21.10;27.70;;;;;;2241137;62;20431;-58
2022/02/04 08:07:31;0.00;0.00;0.62;0.00;0.00;0.62;2.00;1.80;;;21.10;27.70;;;;;;2241061;62;20475;-56
2022/02/04 08:10:29;0.00;0.00;0.62;0.00;0.00;0.62;2.43;1.63;;;21.10;27.70;;;;;;2241696;62;20386;-59
2022/02/04 08:16:52;0.00;0.00;0.62;0.00;0.00;0.62;2.00;1.80;;;21.10;27.60;;;;;;2241367;62;20581;-59
2022/02/04 08:20:08;0.00;0.00;0.62;0.00;0.00;0.62;1.80;1.47;;;21.10;27.60;;;;;;2240889;62;20547;-59
2022/02/04 08:26:01;0.00;0.00;0.62;0.00;0.00;0.62;2.10;1.80;;;21.10;27.50;;;;;;2241862;62;20671;-58
2022/02/04 08:32:07;0.00;0.00;0.62;0.00;0.00;0.62;1.77;1.50;;;21.10;27.50;;;;;;2241544;62;20355;-59
2022/02/04 08:55:52;0.00;0.00;0.62;0.00;0.00;0.62;1.97;1.57;;;21.20;27.40;;;;;;2237069;62;20423;-59
2022/02/04 08:58:43;0.00;0.00;0.62;0.00;0.00;0.62;1.80;1.53;;;21.20;27.40;;;;;;2236947;62;20375;-60
2022/02/04 09:01:34;0.00;0.00;0.62;0.00;0.00;0.62;1.70;1.13;;;21.20;27.40;;;;;;2237488;62;20423;-60
2022/02/04 09:04:28;0.00;0.00;0.62;0.00;0.00;0.62;1.90;1.60;;;21.20;28.00;;;;;;2236665;62;20728;-60
2022/02/04 09:07:16;0.00;0.00;0.62;0.00;0.00;0.62;2.67;1.53;;;21.20;27.40;;;;;;2237193;62;20756;-58
2022/02/04 09:10:10;0.00;0.00;0.62;0.00;0.00;0.62;1.83;1.37;;;21.20;27.40;;;;;;2237628;62;20451;-59
2022/02/04 09:18:58;0.00;0.00;0.62;0.00;0.00;0.62;1.90;1.57;;;21.20;27.40;;;;;;2236675;62;20763;-59
2022/02/04 09:24:40;0.00;0.00;0.62;0.00;0.00;0.62;1.50;1.13;;;21.20;27.40;;;;;;2237625;62;20445;-59
2022/02/04 09:27:25;0.00;0.00;0.62;0.00;0.00;0.62;1.70;1.50;;;21.20;27.40;;;;;;2236880;62;20634;-58
2022/02/04 09:30:13;0.00;0.00;0.62;0.00;0.00;0.62;1.60;1.30;;;21.20;27.40;;;;;;2237110;62;20379;-59
2022/02/04 09:32:58;0.00;0.00;0.62;0.00;0.00;0.62;1.70;1.10;;;21.20;27.40;;;;;;2236870;62;20496;-59
2022/02/04 09:35:43;0.00;0.00;0.62;0.00;0.00;0.62;2.00;1.23;;;21.20;27.40;;;;;;2237150;62;20415;-59
2022/02/04 09:38:28;0.00;0.00;0.62;0.00;0.00;0.62;2.10;1.20;;;21.20;27.40;;;;;;2236946;62;20420;-60
2022/02/04 09:41:12;0.00;0.00;0.62;0.00;0.00;0.62;1.70;1.30;;;21.20;27.40;;;;;;2236609;62;20614;-59
2022/02/04 09:43:57;0.00;0.00;0.62;0.00;0.00;0.62;1.60;1.17;;;21.20;27.40;;;;;;2236965;62;20450;-60
2022/02/04 09:46:43;0.00;0.00;0.62;0.00;0.00;0.62;1.60;1.17;;;21.20;27.40;;;;;;2237374;62;20387;-59
2022/02/04 09:49:32;0.00;0.00;0.62;0.00;0.00;0.62;1.50;1.10;;;21.20;27.40;;;;;;2239665;62;20617;-59
2022/02/04 10:07:48;0.00;0.00;0.62;0.00;0.00;0.62;1.77;1.10;;;21.30;27.50;;;;;;2241780;62;20398;-59
2022/02/04 10:13:39;0.00;0.00;0.62;0.00;0.00;0.62;1.70;1.27;;;21.30;27.50;;;;;;2241501;62;20358;-59
2022/02/04 10:16:41;0.00;0.00;0.62;0.00;0.00;0.62;1.60;1.07;;;21.30;27.50;;;;;;2242106;62;20475;-57
2022/02/04 10:19:32;0.00;0.00;0.62;0.00;0.00;0.62;1.60;0.90;;;21.30;27.50;;;;;;2241358;62;20390;-57
2022/02/04 10:22:20;0.00;0.00;0.62;0.00;0.00;0.62;1.57;1.20;;;21.30;27.50;;;;;;2241480;62;20375;-58
2022/02/04 10:25:11;0.00;0.00;0.62;0.00;0.00;0.62;1.77;1.00;;;21.30;27.50;;;;;;2241544;62;20446;-60
2022/02/04 10:27:56;0.00;0.00;0.62;0.00;0.00;0.62;1.40;1.00;;;21.30;27.50;;;;;;2241754;62;20390;-59
2022/02/04 10:30:40;0.00;0.00;0.62;0.00;0.00;0.62;1.60;1.17;;;21.30;27.50;;;;;;2241939;62;20442;-60
2022/02/04 10:33:25;0.00;0.00;0.62;0.00;0.00;0.62;1.30;0.83;;;21.30;27.50;;;;;;2241068;62;20378;-59
2022/02/04 10:36:31;0.00;0.00;0.62;0.00;0.00;0.62;1.53;1.10;;;21.30;27.50;;;;;;2241763;62;20422;-59
2022/02/04 10:39:43;0.00;0.00;0.62;0.00;0.00;0.62;1.30;1.00;;;21.30;27.50;;;;;;2240485;62;20456;-60
2022/02/04 10:48:54;0.00;0.00;0.62;0.00;0.00;0.62;1.30;0.90;;;21.30;27.50;;;;;;2237736;62;20660;-60
2022/02/04 10:52:08;0.00;0.00;0.62;0.00;0.00;0.62;1.40;0.80;;;21.30;27.50;;;;;;2237654;62;20609;-60
2022/02/04 11:03:54;0.00;0.00;0.62;0.00;0.00;0.62;1.30;0.80;;;21.30;27.50;;;;;;2237352;62;20399;-60
2022/02/04 11:06:54;0.00;0.00;0.62;0.00;0.00;0.62;1.50;1.00;;;21.40;27.60;;;;;;2237684;62;20384;-59
2022/02/04 11:31:06;0.00;0.00;0.62;0.00;0.00;0.62;3.07;1.30;;;21.40;27.60;;;;;;2237218;62;20387;-59
2022/02/04 11:43:41;0.00;0.00;0.62;0.00;0.00;0.62;1.30;0.80;;;21.40;27.60;;;;;;2238032;62;20404;-59
2022/02/04 11:52:48;0.00;0.00;0.62;0.00;0.00;0.62;1.30;0.90;;;21.50;27.70;;;;;;2241909;62;20406;-58
2022/02/04 11:55:33;0.00;0.00;0.62;0.00;0.00;0.62;1.60;1.00;;;21.50;27.70;;;;;;2241101;62;20367;-60
2022/02/04 11:58:17;0.00;0.00;0.62;0.00;0.00;0.62;1.30;0.87;;;21.50;27.70;;;;;;2241349;62;20362;-60
2022/02/04 12:01:05;0.00;0.00;0.62;0.00;0.00;0.62;1.30;0.80;;;21.50;27.70;;;;;;2241073;62;20459;-59
2022/02/04 12:03:54;0.00;0.00;0.62;0.00;0.00;0.62;1.57;0.90;;;21.50;27.70;;;;;;2241282;62;20583;-60
2022/02/04 12:06:40;0.00;0.00;0.62;0.00;0.00;0.62;1.40;0.80;;;21.50;27.70;;;;;;2242038;62;20698;-59
2022/02/04 12:09:37;0.00;0.00;0.62;0.00;0.00;0.62;1.50;0.93;;;21.60;27.70;;;;;;2240538;62;20383;-59
2022/02/04 12:13:10;0.00;0.00;0.62;0.00;0.00;0.62;1.30;0.80;;;21.60;27.80;;;;;;2241069;62;20378;-61
2022/02/04 12:16:04;0.00;0.00;0.62;0.00;0.00;0.62;1.33;0.90;;;21.60;27.70;;;;;;2241027;62;20414;-59
2022/02/04 12:19:10;0.00;0.00;0.62;0.00;0.00;0.62;1.30;0.80;;;21.60;27.70;;;;;;2241069;62;20362;-58
2022/02/04 12:21:55;0.00;0.00;0.62;0.00;0.00;0.62;1.37;0.70;;;21.60;27.70;;;;;;2241777;62;20414;-59
2022/02/04 12:24:45;0.00;0.00;0.62;0.00;0.00;0.62;1.30;0.70;;;21.60;27.70;;;;;;2240495;62;20370;-58
2022/02/04 12:27:37;0.00;0.00;0.62;0.00;0.00;0.62;1.60;0.70;;;21.60;27.70;;;;;;2241450;62;20375;-58
2022/02/04 12:30:43;0.00;0.00;0.62;0.00;0.00;0.62;1.30;0.70;;;21.60;27.70;;;;;;2240882;62;20383;-59
2022/02/04 12:33:30;0.00;0.00;0.62;0.00;0.00;0.62;1.30;0.80;;;21.60;27.70;;;;;;2241279;62;20562;-60
2022/02/04 12:36:17;0.00;0.00;0.62;0.00;0.00;0.62;1.30;0.83;;;21.60;27.60;;;;;;2241746;62;20471;-59
2022/02/04 12:39:05;0.00;0.00;0.62;0.00;0.00;0.62;1.23;0.80;;;21.60;27.60;;;;;;2240381;62;20358;-59
2022/02/04 12:41:53;0.00;0.00;0.62;0.00;0.00;0.62;1.20;0.70;;;21.70;27.60;;;;;;2241164;62;20402;-60
2022/02/04 12:44:40;0.00;0.00;0.62;0.00;0.00;0.62;1.60;0.90;;;21.70;27.60;;;;;;2241739;62;20363;-59
2022/02/04 12:47:31;0.00;0.00;0.62;0.00;0.00;0.62;1.20;0.70;;;21.70;27.60;;;;;;2241203;62;20358;-60
2022/02/04 12:50:16;0.00;0.00;0.62;0.00;0.00;0.62;1.30;0.70;;;21.70;27.60;;;;;;2467891;54;20408;-60
2022/02/04 12:53:00;0.00;0.00;0.62;0.00;0.00;0.62;1.30;0.80;;;21.70;27.60;;;;;;2237145;62;20359;-59
2022/02/04 12:56:00;0.00;0.00;0.62;0.00;0.00;0.62;1.30;0.83;;;21.70;27.60;;;;;;2237272;62;20581;-58
2022/02/04 12:59:09;0.00;0.00;0.62;0.00;0.00;0.62;1.20;0.83;;;21.70;27.50;;;;;;2237516;62;20370;-59
2022/02/04 13:02:49;0.00;0.00;0.62;0.00;0.00;0.62;1.30;0.80;;;21.70;27.50;;;;;;2236603;62;20387;-59
2022/02/04 13:08:16;0.00;0.00;0.62;0.00;0.00;0.62;1.40;0.70;;;21.80;27.60;;;;;;2237195;62;20407;-58
2022/02/04 13:11:05;0.00;0.00;0.62;0.00;0.00;0.62;1.60;1.10;;;21.80;27.60;;;;;;2236946;62;20423;-58
2022/02/04 13:13:57;0.00;0.00;0.62;0.00;0.00;0.62;1.30;0.70;;;21.80;27.50;;;;;;2237574;62;20367;-60
2022/02/04 13:16:42;0.00;0.00;0.62;0.00;0.00;0.62;1.20;0.70;;;21.80;27.50;;;;;;2236598;62;20368;-60
2022/02/04 13:19:26;0.00;0.00;0.62;0.00;0.00;0.62;1.50;0.70;;;21.80;27.50;;;;;;2236923;62;20391;-60
2022/02/04 13:22:14;0.00;0.00;0.62;0.00;0.00;0.62;1.30;0.80;;;21.80;27.50;;;;;;2237068;62;20423;-61
2022/02/04 13:25:10;0.00;0.00;0.62;0.00;0.00;0.62;1.43;0.70;;;21.80;27.50;;;;;;2237106;62;20578;-58
2022/02/04 13:28:11;0.00;0.00;0.62;0.00;0.00;0.62;1.20;0.70;;;21.80;27.50;;;;;;2237504;62;20379;-61
2022/02/04 13:31:00;0.00;0.00;0.62;0.00;0.00;0.62;1.53;0.90;;;21.80;27.50;;;;;;2236756;62;20415;-61
2022/02/04 13:33:46;0.00;0.00;0.62;0.00;0.00;0.62;1.50;0.70;;;21.80;27.50;;;;;;2237060;62;20375;-60
2022/02/04 13:36:39;0.00;0.00;0.62;0.00;0.00;0.62;1.40;0.70;;;21.80;27.40;;;;;;2238155;62;20363;-59
2022/02/04 13:39:45;0.00;0.00;0.62;0.00;0.00;0.62;1.90;0.70;;;21.80;27.40;;;;;;2237494;62;20359;-58
2022/02/04 13:42:43;0.00;0.00;0.62;0.00;0.00;0.62;1.17;0.60;;;21.80;27.40;;;;;;2237949;62;20426;-58
2022/02/04 13:45:38;0.00;0.00;0.62;0.00;0.00;0.62;1.20;0.60;;;21.80;27.40;;;;;;2237420;62;20360;-60
2022/02/04 13:48:39;0.00;0.00;0.62;0.00;0.00;0.62;1.20;0.60;;;21.80;27.40;;;;;;2237724;62;20392;-60
2022/02/04 13:51:42;0.00;0.00;0.62;0.00;0.00;0.62;1.67;0.80;;;21.80;27.30;;;;;;2237898;62;20496;-58
2022/02/04 14:03:15;0.00;0.00;0.62;0.00;0.00;0.62;1.30;0.70;;;21.80;27.30;;;;;;2237443;62;20774;-60
2022/02/04 14:06:09;0.00;0.00;0.62;0.00;0.00;0.62;1.20;0.80;;;21.80;27.30;;;;;;2238370;62;20391;-60
2022/02/04 14:08:58;0.00;0.00;0.62;0.00;0.00;0.62;1.20;0.60;;;21.80;27.30;;;;;;2237547;62;20406;-60
2022/02/04 14:11:44;0.00;0.00;0.62;0.00;0.00;0.62;1.43;0.80;;;21.80;27.30;;;;;;2237909;62;20412;-59
2022/02/04 14:14:28;0.00;0.00;0.62;0.00;0.00;0.62;1.30;0.67;;;21.80;27.30;;;;;;2237691;62;20363;-59
2022/02/04 14:17:13;0.00;0.00;0.62;0.00;0.00;0.62;1.20;0.60;;;21.90;27.40;;;;;;2238007;62;20764;-59
2022/02/04 14:19:58;0.00;0.00;0.62;0.00;0.00;0.62;1.30;0.70;;;21.80;27.30;;;;;;2238035;62;20668;-57
2022/02/04 14:22:44;0.00;0.00;0.62;0.00;0.00;0.62;1.40;0.70;;;21.80;27.30;;;;;;2237306;62;20430;-59
2022/02/04 14:25:29;0.00;0.00;0.62;0.00;0.00;0.62;1.20;0.60;;;21.90;27.30;;;;;;2237875;62;20473;-58
2022/02/04 14:28:17;0.00;0.00;0.62;0.00;0.00;0.62;1.40;0.70;;;21.80;27.20;;;;;;2238195;62;20571;-60
2022/02/04 14:37:02;0.00;0.00;0.62;0.00;0.00;0.62;1.20;0.70;;;21.80;27.20;;;;;;2237577;62;20372;-60
2022/02/04 14:52:19;0.00;0.00;0.62;0.00;0.00;0.62;1.10;0.60;;;21.90;27.20;;;;;;2240997;62;20618;-60
2022/02/04 15:01:15;0.00;0.00;0.62;0.00;0.00;0.62;1.20;0.70;;;21.80;27.20;;;;;;2241457;62;20609;-58
2022/02/04 15:04:03;0.00;0.00;0.62;0.00;0.00;0.62;1.60;0.70;;;21.80;27.20;;;;;;2241652;62;20365;-59
2022/02/04 15:06:57;0.00;0.00;0.62;0.00;0.00;0.62;1.10;0.60;;;21.80;27.20;;;;;;2241002;62;20480;-59
2022/02/04 15:09:52;0.00;0.00;0.62;0.00;0.00;0.62;1.40;0.77;;;21.80;27.10;;;;;;2241211;62;20463;-60
2022/02/04 15:12:38;0.00;0.00;0.62;0.00;0.00;0.62;1.50;0.60;;;21.80;27.10;;;;;;2241922;62;20346;-60
2022/02/04 15:15:23;0.00;0.00;0.62;0.00;0.00;0.62;1.50;0.70;;;21.80;27.10;;;;;;2241411;62;20390;-60
2022/02/04 15:18:08;0.00;0.00;0.62;0.00;0.00;0.62;1.30;0.70;;;21.80;27.10;;;;;;2241403;62;20443;-59
2022/02/04 15:20:58;0.00;0.00;0.62;0.00;0.00;0.62;1.20;0.70;;;21.80;27.10;;;;;;2241288;62;20386;-59
2022/02/04 15:23:50;0.00;0.00;0.62;0.00;0.00;0.62;1.50;1.00;;;21.80;27.10;;;;;;2241481;62;20362;-60
2022/02/04 15:26:35;0.00;0.00;0.62;0.00;0.00;0.62;1.30;0.70;;;21.80;27.10;;;;;;2241865;62;20426;-60
2022/02/04 15:29:21;0.00;0.00;0.62;0.00;0.00;0.62;2.40;0.90;;;21.80;27.10;;;;;;2240770;62;20813;-57
2022/02/04 15:32:07;0.00;0.00;0.62;0.00;0.00;0.62;1.40;0.77;;;21.80;27.10;;;;;;2241215;62;20797;-58
2022/02/04 15:34:53;0.00;0.00;0.62;0.00;0.00;0.62;1.50;0.80;;;21.80;27.10;;;;;;2241417;62;20395;-58
2022/02/04 15:37:38;0.00;0.00;0.62;0.00;0.00;0.62;1.30;0.70;;;21.80;27.10;;;;;;2241403;62;20637;-60
2022/02/04 15:40:22;0.00;0.00;0.62;0.00;0.00;0.62;1.50;0.83;;;21.80;27.10;;;;;;2241322;62;20454;-59
2022/02/04 15:43:07;0.00;0.00;0.62;0.00;0.00;0.62;1.23;0.70;;;21.80;27.10;;;;;;2240984;62;20421;-59
2022/02/04 16:00:35;0.00;0.00;0.62;0.00;0.00;0.62;1.30;0.73;;;21.80;27.30;;;;;;2237093;62;20398;-61
2022/02/04 16:06:17;0.00;0.00;0.62;0.00;0.00;0.62;1.70;0.73;;;21.80;27.30;;;;;;2235394;62;20583;-59
2022/02/04 16:09:02;0.00;0.00;0.62;0.00;0.00;0.62;1.30;0.63;;;21.80;27.30;;;;;;2237311;62;20392;-59
2022/02/04 16:11:54;0.00;0.00;0.62;0.00;0.00;0.62;1.30;0.60;;;21.80;27.30;;;;;;2237690;62;20363;-58
2022/02/04 16:14:49;0.00;0.00;0.62;0.00;0.00;0.62;1.30;0.80;;;21.80;27.40;;;;;;2237230;62;20366;-60
2022/02/04 16:17:40;0.00;0.00;0.62;0.00;0.00;0.62;1.40;0.70;;;21.80;27.40;;;;;;2237409;62;20364;-59
2022/02/04 16:20:50;0.00;0.00;0.62;0.00;0.00;0.62;1.23;0.80;;;21.80;27.40;;;;;;2236948;62;20387;-60
2022/02/04 16:23:45;0.00;0.00;0.62;0.00;0.00;0.62;1.30;0.70;;;21.80;27.40;;;;;;2237002;62;20648;-59
2022/02/04 16:29:14;0.00;0.00;0.62;0.00;0.00;0.62;1.20;0.70;;;21.80;27.40;;;;;;2236738;62;20386;-59
2022/02/04 16:31:59;0.00;0.00;0.62;0.00;0.00;0.62;2.33;1.00;;;21.80;27.40;;;;;;2237425;62;20355;-59
2022/02/04 16:34:52;0.00;0.00;0.62;0.00;0.00;0.62;1.30;0.70;;;21.80;27.40;;;;;;2237179;62;20723;-59
2022/02/04 16:37:38;0.00;0.00;0.62;0.00;0.00;0.62;1.40;0.80;;;21.80;27.40;;;;;;2237264;62;20755;-60
2022/02/04 16:40:23;0.00;0.00;0.62;0.00;0.00;0.62;1.30;0.77;;;21.80;27.40;;;;;;2237495;62;20459;-58
2022/02/04 16:43:08;0.00;0.00;0.62;0.00;0.00;0.62;1.20;0.67;;;21.80;27.40;;;;;;2236593;62;20408;-59
2022/02/04 16:45:54;0.00;0.00;0.62;0.00;0.00;0.62;1.27;0.73;;;21.80;27.40;;;;;;2237055;62;20354;-57